createdAt,value
2018-03-31T00:01:12.561Z,99968.23
2018-03-31T00:03:38.423Z,99959.12
2018-03-31T00:06:04.157Z,99954.41
2018-03-31T00:08:29.878Z,99942.30
2018-03-31T00:10:55.966Z,99937.58
2018-03-31T00:13:21.754Z,99942.72
2018-03-31T00:15:47.598Z,99937.14
2018-03-31T00:18:13.424Z,99931.55
2018-03-31T00:20:39.152Z,99922.47
2018-03-31T00:23:04.872Z,99925.50
2018-03-31T00:25:30.684Z,99921.20
2018-03-31T00:27:56.497Z,99929.03
2018-03-31T00:30:22.229Z,99926.41
2018-03-31T00:32:47.997Z,99925.97
2018-03-31T00:35:13.806Z,99924.23
2018-03-31T00:37:39.568Z,99922.55
2018-03-31T00:40:05.416Z,99932.06
2018-03-31T00:42:31.146Z,99923.45
2018-03-31T00:44:56.860Z,99909.17
2018-03-31T00:47:22.621Z,99918.25
2018-03-31T00:49:48.404Z,99908.30
2018-03-31T00:52:14.233Z,99909.17
2018-03-31T00:54:40.010Z,99916.95
2018-03-31T00:57:05.742Z,99913.09
2018-03-31T00:59:31.457Z,99910.47
2018-03-31T01:01:57.252Z,99908.77
2018-03-31T01:04:23.128Z,99911.37
2018-03-31T01:06:48.858Z,99905.75
2018-03-31T01:09:14.628Z,99893.23
2018-03-31T01:11:40.346Z,99897.13
2018-03-31T01:14:06.116Z,99882.86
2018-03-31T01:16:31.974Z,99877.70
2018-03-31T01:18:59.150Z,99885.48
2018-03-31T01:21:24.921Z,99888.51
2018-03-31T01:23:50.675Z,99882.88
2018-03-31T01:26:16.497Z,99876.86
2018-03-31T01:28:42.315Z,99878.56
2018-03-31T01:31:08.088Z,99878.59
2018-03-31T01:33:33.820Z,99880.34
2018-03-31T01:35:59.533Z,99887.67
2018-03-31T01:38:25.358Z,99890.30
2018-03-31T01:40:51.152Z,99874.27
2018-03-31T01:43:16.880Z,99878.59
2018-03-31T01:45:42.637Z,99875.59
2018-03-31T01:48:08.370Z,99870.83
2018-03-31T01:50:34.162Z,99866.97
2018-03-31T01:53:00.022Z,99878.61
2018-03-31T01:55:25.729Z,99888.55
2018-03-31T01:57:51.454Z,99876.05
2018-03-31T02:00:17.212Z,99878.61
2018-03-31T02:02:43.015Z,99876.45
2018-03-31T02:05:08.838Z,99866.11
2018-03-31T02:07:34.840Z,99858.76
2018-03-31T02:10:00.565Z,99856.14
2018-03-31T02:12:26.290Z,99857.89
2018-03-31T02:14:52.077Z,99848.38
2018-03-31T02:17:17.882Z,99848.41
2018-03-31T02:19:43.691Z,99841.52
2018-03-31T02:22:09.464Z,99831.98
2018-03-31T02:24:35.196Z,99823.37
2018-03-31T02:27:00.933Z,99825.55
2018-03-31T02:29:26.729Z,99821.23
2018-03-31T02:31:52.450Z,99816.05
2018-03-31T02:34:18.175Z,99821.25
2018-03-31T02:36:43.973Z,99815.20
2018-03-31T02:39:09.695Z,99819.06
2018-03-31T02:41:35.422Z,99814.79
2018-03-31T02:44:01.555Z,99803.98
2018-03-31T02:46:27.308Z,99793.19
2018-03-31T02:48:53.049Z,99798.37
2018-03-31T02:51:18.816Z,99786.27
2018-03-31T02:53:44.534Z,99781.96
2018-03-31T02:56:10.262Z,99784.55
2018-03-31T02:58:36.030Z,99784.98
2018-03-31T03:01:01.746Z,99791.91
2018-03-31T03:03:27.472Z,99783.70
2018-03-31T03:05:53.341Z,99779.40
2018-03-31T03:08:19.074Z,99778.09
2018-03-31T03:10:44.787Z,99763.41
2018-03-31T03:13:10.565Z,99756.50
2018-03-31T03:15:36.272Z,99743.57
2018-03-31T03:18:02.106Z,99745.30
2018-03-31T03:20:27.878Z,99740.97
2018-03-31T03:22:53.601Z,99737.52
2018-03-31T03:25:19.321Z,99747.89
2018-03-31T03:27:45.084Z,99747.45
2018-03-31T03:30:10.906Z,99750.47
2018-03-31T03:32:36.632Z,99747.88
2018-03-31T03:35:02.398Z,99761.27
2018-03-31T03:37:28.122Z,99755.63
2018-03-31T03:39:53.844Z,99756.07
2018-03-31T03:42:19.703Z,99749.16
2018-03-31T03:44:45.431Z,99750.86
2018-03-31T03:47:11.147Z,99750.37
2018-03-31T03:49:36.930Z,99755.13
2018-03-31T03:52:02.674Z,99744.73
2018-03-31T03:54:28.504Z,99749.08
2018-03-31T03:56:54.323Z,99748.19
2018-03-31T03:59:20.050Z,99745.59
2018-03-31T04:01:45.773Z,99742.53
2018-03-31T04:04:11.546Z,99738.25
2018-03-31T04:06:37.357Z,99733.89
2018-03-31T04:09:03.089Z,99745.99
2018-03-31T04:11:28.856Z,99733.03
2018-03-31T04:13:54.572Z,99733.42
2018-03-31T04:16:20.364Z,99730.43
2018-03-31T04:18:46.249Z,99724.34
2018-03-31T04:21:11.995Z,99724.77
2018-03-31T04:23:37.708Z,99716.56
2018-03-31T04:26:03.468Z,99718.30
2018-03-31T04:28:29.192Z,99710.95
2018-03-31T04:30:55.029Z,99709.66
2018-03-31T04:33:20.797Z,99709.22
2018-03-31T04:35:46.611Z,99715.27
2018-03-31T04:38:12.344Z,99712.20
2018-03-31T04:40:38.088Z,99712.23
2018-03-31T04:43:03.912Z,99712.20
2018-03-31T04:45:29.628Z,99711.77
2018-03-31T04:47:55.400Z,99702.70
2018-03-31T04:50:21.129Z,99701.83
2018-03-31T04:52:46.920Z,99709.98
2018-03-31T04:55:12.782Z,99711.33
2018-03-31T04:57:38.533Z,99715.65
2018-03-31T05:00:04.246Z,99714.31
2018-03-31T05:02:30.029Z,99700.91
2018-03-31T05:04:55.779Z,99713.45
2018-03-31T05:07:21.593Z,99718.63
2018-03-31T05:09:47.352Z,99719.93
2018-03-31T05:12:13.085Z,99712.14
2018-03-31T05:14:38.807Z,99719.45
2018-03-31T05:17:04.569Z,99706.89
2018-03-31T05:19:30.384Z,99710.31
2018-03-31T05:21:56.152Z,99705.17
2018-03-31T05:24:21.920Z,99703.87
2018-03-31T05:26:47.636Z,99709.06
2018-03-31T05:29:13.339Z,99703.39
2018-03-31T05:31:39.209Z,99704.69
2018-03-31T05:34:04.936Z,99698.20
2018-03-31T05:36:30.669Z,99684.84
2018-03-31T05:38:56.432Z,99684.78
2018-03-31T05:41:22.161Z,99679.59
2018-03-31T05:43:47.956Z,99670.02
2018-03-31T05:46:13.729Z,99661.68
2018-03-31T05:48:39.457Z,99665.92
2018-03-31T05:51:05.186Z,99662.03
2018-03-31T05:53:30.965Z,99659.42
2018-03-31T05:55:56.809Z,99654.59
2018-03-31T05:58:22.597Z,99649.45
2018-03-31T06:00:48.348Z,99642.02
2018-03-31T06:03:14.103Z,99641.96
2018-03-31T06:05:39.893Z,99632.87
2018-03-31T06:08:05.857Z,99631.02
2018-03-31T06:10:31.581Z,99627.70
2018-03-31T06:12:57.382Z,99623.80
2018-03-31T06:15:23.168Z,99629.68
2018-03-31T06:17:48.938Z,99631.02
2018-03-31T06:20:14.765Z,99634.51
2018-03-31T06:22:40.534Z,99630.18
2018-03-31T06:25:06.258Z,99639.37
2018-03-31T06:27:31.981Z,99632.84
2018-03-31T06:29:57.830Z,99632.80
2018-03-31T06:32:23.838Z,99633.66
2018-03-31T06:34:49.561Z,99641.08
2018-03-31T06:37:15.326Z,99637.89
2018-03-31T06:39:41.054Z,99632.10
2018-03-31T06:42:06.773Z,99634.27
2018-03-31T06:44:32.821Z,99637.38
2018-03-31T06:46:58.537Z,99633.56
2018-03-31T06:49:24.285Z,99630.50
2018-03-31T06:51:50.029Z,99627.91
2018-03-31T06:54:15.739Z,99617.97
2018-03-31T06:56:41.452Z,99617.98
2018-03-31T06:59:07.225Z,99616.17
2018-03-31T07:01:32.959Z,99615.72
2018-03-31T07:03:58.698Z,99613.50
2018-03-31T07:06:24.524Z,99608.78
2018-03-31T07:08:50.245Z,99611.82
2018-03-31T07:11:15.966Z,99611.30
2018-03-31T07:13:41.736Z,99604.73
2018-03-31T07:16:08.583Z,99601.70
2018-03-31T07:18:34.445Z,99599.42
2018-03-31T07:21:00.192Z,99599.36
2018-03-31T07:23:25.913Z,99591.98
2018-03-31T07:25:51.648Z,99598.81
2018-03-31T07:28:17.437Z,99593.62
2018-03-31T07:30:43.147Z,99601.87
2018-03-31T07:33:08.963Z,99597.94
2018-03-31T07:35:34.825Z,99603.98
2018-03-31T07:38:00.606Z,99603.98
2018-03-31T07:40:26.348Z,99611.03
2018-03-31T07:42:52.097Z,99607.91
2018-03-31T07:45:17.862Z,99604.02
2018-03-31T07:47:43.585Z,99597.50
2018-03-31T07:50:09.344Z,99596.89
2018-03-31T07:52:35.078Z,99594.19
2018-03-31T07:55:00.821Z,99588.97
2018-03-31T07:57:26.621Z,99589.29
2018-03-31T07:59:52.328Z,99584.08
2018-03-31T08:02:18.065Z,99585.69
2018-03-31T08:04:43.861Z,99576.91
2018-03-31T08:07:09.577Z,99566.92
2018-03-31T08:09:35.293Z,99569.02
2018-03-31T08:12:01.060Z,99570.16
2018-03-31T08:14:26.852Z,99567.86
2018-03-31T08:16:52.568Z,99562.97
2018-03-31T08:19:18.328Z,99572.05
2018-03-31T08:21:44.057Z,99570.88
2018-03-31T08:24:09.794Z,99575.36
2018-03-31T08:26:35.548Z,99566.48
2018-03-31T08:29:01.265Z,99563.88
2018-03-31T08:31:26.977Z,99555.78
2018-03-31T08:33:53.090Z,99551.88
2018-03-31T08:36:18.892Z,99543.56
2018-03-31T08:38:44.626Z,99535.28
2018-03-31T08:41:10.397Z,99542.38
2018-03-31T08:43:36.228Z,99551.23
2018-03-31T08:46:02.029Z,99550.80
2018-03-31T08:48:27.805Z,99540.23
2018-03-31T08:50:53.528Z,99545.02
2018-03-31T08:53:19.245Z,99542.23
2018-03-31T08:55:45.013Z,99541.27
2018-03-31T08:58:10.770Z,99529.64
2018-03-31T09:00:36.613Z,99535.93
2018-03-31T09:03:02.378Z,99528.84
2018-03-31T09:05:28.102Z,99522.17
2018-03-31T09:07:53.833Z,99523.34
2018-03-31T09:10:19.593Z,99517.71
2018-03-31T09:12:45.361Z,99509.48
2018-03-31T09:15:11.085Z,99517.03
2018-03-31T09:17:36.854Z,99510.19
2018-03-31T09:20:02.613Z,99513.81
2018-03-31T09:22:28.382Z,99520.27
2018-03-31T09:24:54.160Z,99513.45
2018-03-31T09:27:19.902Z,99502.45
2018-03-31T09:29:45.665Z,99503.56
2018-03-31T09:32:11.590Z,99490.09
2018-03-31T09:34:37.318Z,99484.53
2018-03-31T09:37:03.037Z,99473.47
2018-03-31T09:39:28.819Z,99473.50
2018-03-31T09:41:54.556Z,99466.62
2018-03-31T09:44:20.645Z,99452.36
2018-03-31T09:46:46.521Z,99455.82
2018-03-31T09:49:12.217Z,99458.06
2018-03-31T09:51:39.213Z,99459.52
2018-03-31T09:54:05.089Z,99474.01
2018-03-31T09:56:30.900Z,99466.31
2018-03-31T09:58:56.604Z,99471.35
2018-03-31T10:01:22.368Z,99472.42
2018-03-31T10:03:48.072Z,99465.80
2018-03-31T10:06:13.797Z,99468.25
2018-03-31T10:08:39.548Z,99471.92
2018-03-31T10:11:05.255Z,99488.72
2018-03-31T10:13:31.002Z,99471.91
2018-03-31T10:15:56.768Z,99471.83
2018-03-31T10:18:22.472Z,99470.08
2018-03-31T10:20:48.188Z,99478.84
2018-03-31T10:23:13.937Z,99486.84
2018-03-31T10:25:39.740Z,99474.92
2018-03-31T10:28:05.469Z,99482.58
2018-03-31T10:30:31.242Z,99487.07
2018-03-31T10:32:56.976Z,99478.03
2018-03-31T10:35:22.814Z,99481.41
2018-03-31T10:37:48.565Z,99479.39
2018-03-31T10:40:14.328Z,99475.02
2018-03-31T10:42:40.103Z,99471.08
2018-03-31T10:45:05.910Z,99469.00
2018-03-31T10:47:31.802Z,99467.27
2018-03-31T10:49:57.530Z,99463.93
2018-03-31T10:52:23.296Z,99460.15
2018-03-31T10:54:49.019Z,99466.28
2018-03-31T10:57:14.750Z,99466.74
2018-03-31T10:59:40.597Z,99465.43
2018-03-31T11:02:06.311Z,99456.66
2018-03-31T11:04:32.025Z,99454.91
2018-03-31T11:06:57.796Z,99464.91
2018-03-31T11:09:23.528Z,99474.34
2018-03-31T11:11:49.337Z,99468.27
2018-03-31T11:14:15.110Z,99470.13
2018-03-31T11:16:40.828Z,99472.67
2018-03-31T11:19:06.550Z,99477.99
2018-03-31T11:21:32.317Z,99463.12
2018-03-31T11:23:58.660Z,99466.96
2018-03-31T11:26:24.398Z,99456.84
2018-03-31T11:28:50.148Z,99460.41
2018-03-31T11:31:15.931Z,99457.97
2018-03-31T11:33:41.635Z,99464.52
2018-03-31T11:36:07.504Z,99460.30
2018-03-31T11:38:33.214Z,99444.90
2018-03-31T11:40:58.958Z,99437.54
2018-03-31T11:43:24.835Z,99441.91
2018-03-31T11:45:50.573Z,99434.48
2018-03-31T11:48:16.393Z,99431.83
2018-03-31T11:50:42.430Z,99436.73
2018-03-31T11:53:08.156Z,99430.80
2018-03-31T11:55:33.865Z,99434.32
2018-03-31T11:57:59.624Z,99424.17
2018-03-31T12:00:25.448Z,99428.06
2018-03-31T12:02:51.181Z,99422.73
2018-03-31T12:05:16.947Z,99437.25
2018-03-31T12:07:42.665Z,99426.94
2018-03-31T12:10:08.552Z,99420.73
2018-03-31T12:12:34.401Z,99430.72
2018-03-31T12:15:00.132Z,99430.27
2018-03-31T12:17:25.869Z,99415.50
2018-03-31T12:19:51.631Z,99418.67
2018-03-31T12:22:17.340Z,99419.36
2018-03-31T12:24:43.167Z,99424.19
2018-03-31T12:27:08.936Z,99420.57
2018-03-31T12:29:34.673Z,99413.34
2018-03-31T12:32:00.380Z,99408.14
2018-03-31T12:34:26.145Z,99395.72
2018-03-31T12:36:51.965Z,99400.16
2018-03-31T12:39:17.681Z,99394.26
2018-03-31T12:41:43.441Z,99397.12
2018-03-31T12:44:09.161Z,99389.64
2018-03-31T12:46:34.873Z,99387.44
2018-03-31T12:49:00.745Z,99394.33
2018-03-31T12:51:26.453Z,99403.27
2018-03-31T12:53:52.228Z,99407.86
2018-03-31T12:56:18.246Z,99411.33
2018-03-31T12:58:43.969Z,99408.41
2018-03-31T13:01:09.768Z,99411.02
2018-03-31T13:03:35.697Z,99405.23
2018-03-31T13:06:01.410Z,99402.77
2018-03-31T13:08:27.136Z,99412.53
2018-03-31T13:10:52.909Z,99410.55
2018-03-31T13:13:18.745Z,99407.11
2018-03-31T13:15:44.470Z,99406.55
2018-03-31T13:18:10.264Z,99411.16
2018-03-31T13:20:35.976Z,99413.53
2018-03-31T13:23:01.726Z,99422.02
2018-03-31T13:25:27.568Z,99425.98
2018-03-31T13:27:53.289Z,99429.74
2018-03-31T13:30:19.010Z,99429.05
2018-03-31T13:32:44.772Z,99422.61
2018-03-31T13:35:10.492Z,99425.72
2018-03-31T13:37:36.308Z,99425.98
2018-03-31T13:40:02.116Z,99416.77
2018-03-31T13:42:27.848Z,99408.53
2018-03-31T13:44:53.565Z,99405.72
2018-03-31T13:47:19.321Z,99402.69
2018-03-31T13:49:45.131Z,99394.05
2018-03-31T13:52:10.844Z,99375.92
2018-03-31T13:54:36.704Z,99377.47
2018-03-31T13:57:02.426Z,99388.34
2018-03-31T13:59:28.133Z,99390.08
2018-03-31T14:01:53.996Z,99392.66
2018-03-31T14:04:19.709Z,99390.57
2018-03-31T14:06:45.430Z,99385.50
2018-03-31T14:09:11.188Z,99388.52
2018-03-31T14:11:36.938Z,99378.38
2018-03-31T14:14:02.744Z,99372.23
2018-03-31T14:16:28.508Z,99378.13
2018-03-31T14:18:54.217Z,99372.51
2018-03-31T14:21:19.942Z,99373.20
2018-03-31T14:23:45.696Z,99377.20
2018-03-31T14:26:11.501Z,99381.64
2018-03-31T14:28:37.295Z,99384.63
2018-03-31T14:31:03.044Z,99377.28
2018-03-31T14:33:28.772Z,99377.28
2018-03-31T14:35:54.512Z,99383.34
2018-03-31T14:38:20.377Z,99374.21
2018-03-31T14:40:46.084Z,99376.36
2018-03-31T14:43:11.806Z,99384.67
2018-03-31T14:45:37.577Z,99380.85
2018-03-31T14:48:03.397Z,99384.44
2018-03-31T14:50:29.227Z,99377.01
2018-03-31T14:52:54.989Z,99376.16
2018-03-31T14:55:20.795Z,99383.45
2018-03-31T14:57:47.226Z,99380.45
2018-03-31T15:00:13.092Z,99375.72
2018-03-31T15:02:38.897Z,99373.95
2018-03-31T15:05:04.612Z,99369.59
2018-03-31T15:07:30.494Z,99380.06
2018-03-31T15:09:56.467Z,99370.48
2018-03-31T15:12:22.246Z,99363.96
2018-03-31T15:14:48.101Z,99364.42
2018-03-31T15:17:13.857Z,99361.92
2018-03-31T15:19:39.552Z,99356.58
2018-03-31T15:22:05.308Z,99349.16
2018-03-31T15:24:31.044Z,99366.59
2018-03-31T15:26:56.770Z,99361.81
2018-03-31T15:29:22.524Z,99352.42
2018-03-31T15:31:48.245Z,99362.84
2018-03-31T15:34:14.107Z,99354.47
2018-03-31T15:36:40.043Z,99358.81
2018-03-31T15:39:05.776Z,99357.97
2018-03-31T15:41:32.356Z,99345.81
2018-03-31T15:43:58.127Z,99353.75
2018-03-31T15:46:23.998Z,99349.68
2018-03-31T15:48:49.869Z,99349.25
2018-03-31T15:51:15.630Z,99359.79
2018-03-31T15:53:41.355Z,99357.84
2018-03-31T15:56:07.236Z,99355.53
2018-03-31T15:58:33.007Z,99357.75
2018-03-31T16:00:58.712Z,99359.08
2018-03-31T16:03:24.573Z,99352.06
2018-03-31T16:05:50.357Z,99347.02
2018-03-31T16:08:16.088Z,99345.30
2018-03-31T16:10:41.809Z,99344.39
2018-03-31T16:13:07.566Z,99347.92
2018-03-31T16:15:33.300Z,99338.44
2018-03-31T16:17:59.022Z,99345.91
2018-03-31T16:20:24.794Z,99339.06
2018-03-31T16:22:50.517Z,99340.42
2018-03-31T16:25:16.258Z,99342.45
2018-03-31T16:27:42.463Z,99339.97
2018-03-31T16:30:08.214Z,99342.66
2018-03-31T16:32:33.982Z,99348.78
2018-03-31T16:34:59.818Z,99349.68
2018-03-31T16:37:25.715Z,99344.74
2018-03-31T16:39:51.505Z,99350.17
2018-03-31T16:42:17.569Z,99344.52
2018-03-31T16:44:43.448Z,99354.10
2018-03-31T16:47:09.241Z,99353.55
2018-03-31T16:49:35.042Z,99348.44
2018-03-31T16:52:01.231Z,99346.59
2018-03-31T16:54:26.965Z,99353.27
2018-03-31T16:56:52.792Z,99347.10
2018-03-31T16:59:18.517Z,99353.69
2018-03-31T17:01:44.726Z,99353.61
2018-03-31T17:04:10.615Z,99354.48
2018-03-31T17:06:36.389Z,99354.22
2018-03-31T17:09:02.544Z,99352.91
2018-03-31T17:11:28.616Z,99356.02
2018-03-31T17:13:54.470Z,99363.41
2018-03-31T17:16:20.261Z,99358.92
2018-03-31T17:18:46.016Z,99357.51
2018-03-31T17:21:11.732Z,99360.98
2018-03-31T17:23:37.443Z,99372.36
2018-03-31T17:26:03.212Z,99366.06
2018-03-31T17:28:28.917Z,99370.88
2018-03-31T17:30:54.663Z,99372.39
2018-03-31T17:33:20.432Z,99375.85
2018-03-31T17:35:46.152Z,99382.23
2018-03-31T17:38:11.870Z,99373.11
2018-03-31T17:40:37.706Z,99375.70
2018-03-31T17:43:03.521Z,99375.50
2018-03-31T17:45:29.240Z,99379.33
2018-03-31T17:47:55.017Z,99378.67
2018-03-31T17:50:20.797Z,99376.66
2018-03-31T17:52:46.517Z,99379.06
2018-03-31T17:55:12.270Z,99379.70
2018-03-31T17:57:38.001Z,99377.17
2018-03-31T18:00:03.738Z,99381.86
2018-03-31T18:02:29.499Z,99381.83
2018-03-31T18:04:55.217Z,99381.06
2018-03-31T18:07:20.996Z,99385.27
2018-03-31T18:09:46.771Z,99384.75
2018-03-31T18:12:12.520Z,99381.72
2018-03-31T18:14:38.293Z,99382.32
2018-03-31T18:17:04.315Z,99380.17
2018-03-31T18:19:30.144Z,99377.77
2018-03-31T18:21:55.857Z,99375.63
2018-03-31T18:24:21.606Z,99377.00
2018-03-31T18:26:47.321Z,99382.91
2018-03-31T18:29:13.140Z,99377.14
2018-03-31T18:31:38.949Z,99375.97
2018-03-31T18:34:04.814Z,99377.69
2018-03-31T18:36:30.557Z,99379.44
2018-03-31T18:38:56.309Z,99382.13
2018-03-31T18:41:22.008Z,99376.80
2018-03-31T18:43:47.842Z,99382.47
2018-03-31T18:46:13.951Z,99376.39
2018-03-31T18:48:39.689Z,99376.18
2018-03-31T18:51:05.743Z,99376.81
2018-03-31T18:53:31.532Z,99376.06
2018-03-31T18:55:57.267Z,99375.69
2018-03-31T18:58:23.275Z,99383.11
2018-03-31T19:00:49.060Z,99370.06
2018-03-31T19:03:14.769Z,99369.69
2018-03-31T19:05:40.495Z,99365.84
2018-03-31T19:08:06.276Z,99358.50
2018-03-31T19:10:32.097Z,99356.81
2018-03-31T19:12:57.914Z,99363.81
2018-03-31T19:15:23.685Z,99357.73
2018-03-31T19:17:49.406Z,99357.48
2018-03-31T19:20:16.968Z,99355.86
2018-03-31T19:22:42.733Z,99357.66
2018-03-31T19:25:14.545Z,99355.34
2018-03-31T19:27:40.269Z,99361.84
2018-03-31T19:30:06.028Z,99349.73
2018-03-31T19:32:31.733Z,99358.84
2018-03-31T19:34:57.449Z,99353.47
2018-03-31T19:37:23.284Z,99359.41
2018-03-31T19:39:50.043Z,99342.11
2018-03-31T19:42:15.754Z,99343.86
2018-03-31T19:44:41.493Z,99346.56
2018-03-31T19:47:07.435Z,99336.20
2018-03-31T19:49:33.206Z,99345.01
2018-03-31T19:51:58.953Z,99341.45
2018-03-31T19:54:24.660Z,99345.35
2018-03-31T19:56:50.374Z,99355.10
2018-03-31T19:59:16.195Z,99358.54
2018-03-31T20:01:41.945Z,99362.70
2018-03-31T20:04:07.761Z,99360.27
2018-03-31T20:06:33.506Z,99369.38
2018-03-31T20:08:59.256Z,99371.55
2018-03-31T20:11:24.968Z,99366.78
2018-03-31T20:13:51.022Z,99365.52
2018-03-31T20:16:16.779Z,99373.47
2018-03-31T20:18:42.497Z,99376.55
2018-03-31T20:21:08.254Z,99372.26
2018-03-31T20:23:33.967Z,99374.05
2018-03-31T20:26:00.045Z,99374.43
2018-03-31T20:28:25.816Z,99376.67
2018-03-31T20:30:51.534Z,99369.30
2018-03-31T20:33:17.274Z,99373.89
2018-03-31T20:35:43.774Z,99385.34
2018-03-31T20:38:09.499Z,99384.08
2018-03-31T20:40:35.225Z,99383.83
2018-03-31T20:43:00.972Z,99372.84
2018-03-31T20:45:26.693Z,99374.09
2018-03-31T20:47:52.579Z,99370.69
2018-03-31T20:50:18.359Z,99369.11
2018-03-31T20:52:44.197Z,99365.34
2018-03-31T20:55:09.963Z,99373.20
2018-03-31T20:57:36.084Z,99374.94
2018-03-31T21:00:01.818Z,99381.11
2018-03-31T21:02:27.809Z,99379.70
2018-03-31T21:04:53.933Z,99372.89
2018-03-31T21:07:19.681Z,99370.70
2018-03-31T21:09:45.546Z,99380.44
2018-03-31T21:12:11.395Z,99381.45
2018-03-31T21:14:37.118Z,99378.81
2018-03-31T21:17:02.854Z,99372.36
2018-03-31T21:19:28.640Z,99367.65
2018-03-31T21:21:54.576Z,99364.18
2018-03-31T21:24:20.301Z,99373.41
2018-03-31T21:26:46.097Z,99371.70
2018-03-31T21:29:11.808Z,99374.25
2018-03-31T21:31:37.524Z,99372.52
2018-03-31T21:34:03.345Z,99367.45
2018-03-31T21:36:29.084Z,99366.14
2018-03-31T21:38:54.807Z,99366.73
2018-03-31T21:41:20.555Z,99372.12
2018-03-31T21:43:46.360Z,99368.61
2018-03-31T21:46:12.065Z,99363.91
2018-03-31T21:48:37.812Z,99366.13
2018-03-31T21:51:03.553Z,99362.22
2018-03-31T21:53:29.283Z,99362.73
2018-03-31T21:55:55.023Z,99370.64
2018-03-31T21:58:20.746Z,99372.78
2018-03-31T22:00:46.981Z,99368.06
2018-03-31T22:03:12.779Z,99371.67
2018-03-31T22:05:38.521Z,99369.58
2018-03-31T22:08:04.237Z,99368.82
2018-03-31T22:10:30.086Z,99364.45
2018-03-31T22:13:01.994Z,99369.87
2018-03-31T22:15:33.772Z,99356.85
2018-03-31T22:17:59.495Z,99376.34
2018-03-31T22:20:25.209Z,99374.22
2018-03-31T22:22:50.954Z,99374.19
2018-03-31T22:25:16.687Z,99378.08
2018-03-31T22:27:42.402Z,99376.75
2018-03-31T22:30:08.140Z,99370.28
2018-03-31T22:32:33.865Z,99375.35
2018-03-31T22:34:59.591Z,99381.54
2018-03-31T22:37:25.561Z,99380.34
2018-03-31T22:39:51.277Z,99364.34
2018-03-31T22:42:17.001Z,99358.33
2018-03-31T22:44:42.752Z,99361.01
2018-03-31T22:47:08.470Z,99355.27
2018-03-31T22:49:34.204Z,99361.79
2018-03-31T22:51:59.972Z,99354.48
2018-03-31T22:54:25.713Z,99360.58
2018-03-31T22:56:51.438Z,99357.95
2018-03-31T22:59:17.185Z,99357.11
2018-03-31T23:01:42.900Z,99353.69
2018-03-31T23:04:08.609Z,99356.38
2018-03-31T23:06:34.347Z,99353.77
2018-03-31T23:09:00.057Z,99356.45
2018-03-31T23:11:26.705Z,99359.54
2018-03-31T23:13:52.459Z,99353.02
2018-03-31T23:16:18.198Z,99349.11
2018-03-31T23:18:43.944Z,99356.94
2018-03-31T23:21:09.692Z,99354.36
2018-03-31T23:23:35.402Z,99354.83
2018-03-31T23:26:01.134Z,99364.28
2018-03-31T23:28:26.907Z,99362.55
2018-03-31T23:30:52.634Z,99363.94
2018-03-31T23:33:18.357Z,99362.68
2018-03-31T23:35:44.112Z,99365.27
2018-03-31T23:38:09.812Z,99369.66
2018-03-31T23:40:35.522Z,99367.96
2018-03-31T23:43:01.289Z,99360.61
2018-03-31T23:45:27.013Z,99370.61
2018-03-31T23:47:52.746Z,99371.00
2018-03-31T23:50:18.495Z,99367.91
2018-03-31T23:52:44.209Z,99370.89
2018-03-31T23:55:09.937Z,99370.02
2018-03-31T23:57:35.758Z,99360.16
